createdAt,value
2023-04-19T05:02:41.935Z,100.00
2023-04-19T05:05:11.473Z,100.00
2023-04-19T05:07:38.774Z,100.00
2023-04-19T05:10:06.378Z,100.00
2023-04-19T05:12:43.108Z,100.00
2023-04-19T05:15:11.892Z,100.00
2023-04-19T05:17:46.655Z,100.00
2023-04-19T05:20:16.813Z,100.00
2023-04-19T05:22:49.075Z,100.00
2023-04-19T05:25:15.883Z,100.00
2023-04-19T05:27:43.492Z,100.00
2023-04-19T05:30:10.964Z,100.00
2023-04-19T05:32:42.587Z,100.00
2023-04-19T05:35:11.751Z,100.00
2023-04-19T05:37:39.795Z,100.00
2023-04-19T05:40:13.626Z,100.00
2023-04-19T05:42:41.200Z,100.00
2023-04-19T05:45:12.852Z,100.00
2023-04-19T05:47:43.405Z,100.00
2023-04-19T05:50:15.002Z,100.00
2023-04-19T05:52:47.832Z,100.00
2023-04-19T05:55:18.131Z,100.00
2023-04-19T05:57:50.568Z,100.00
2023-04-19T06:00:17.650Z,100.00
2023-04-19T06:02:54.973Z,100.00
2023-04-19T06:05:22.587Z,100.00
2023-04-19T06:07:55.075Z,100.00
2023-04-19T06:10:36.739Z,100.00
2023-04-19T06:13:09.840Z,100.00
2023-04-19T06:15:37.417Z,100.00
2023-04-19T06:18:05.803Z,100.00
2023-04-19T06:20:32.694Z,100.00
2023-04-19T06:22:59.544Z,100.00
2023-04-19T06:25:26.864Z,100.00
2023-04-19T06:27:54.992Z,100.00
2023-04-19T06:30:28.986Z,100.00
2023-04-19T06:32:56.069Z,100.00
2023-04-19T06:35:25.401Z,100.00
2023-04-19T06:37:56.762Z,100.00
2023-04-19T06:40:26.213Z,100.00
2023-04-19T06:43:07.548Z,100.00
2023-04-19T06:45:40.195Z,100.00
2023-04-19T06:48:08.632Z,100.00
2023-04-19T06:50:36.235Z,100.00
2023-04-19T06:53:05.502Z,100.00
2023-04-19T06:55:38.273Z,100.00
2023-04-19T06:58:07.721Z,100.00
2023-04-19T07:00:35.255Z,100.00
2023-04-19T07:03:02.226Z,100.00
2023-04-19T07:05:31.459Z,100.00
2023-04-19T07:07:58.481Z,100.00
2023-04-19T07:10:31.821Z,100.00
2023-04-19T07:13:00.042Z,100.00
2023-04-19T07:15:27.464Z,100.00
2023-04-19T07:17:54.218Z,100.00
2023-04-19T07:20:21.972Z,100.00
2023-04-19T07:22:48.656Z,100.00
2023-04-19T07:25:15.891Z,100.00
2023-04-19T07:27:42.598Z,100.00
2023-04-19T07:30:10.413Z,100.00
2023-04-19T07:32:37.132Z,100.00
2023-04-19T07:35:04.816Z,100.00
2023-04-19T07:37:31.579Z,100.00
2023-04-19T07:39:58.551Z,100.00
2023-04-19T07:42:26.008Z,100.00
2023-04-19T07:44:53.395Z,100.00
2023-04-19T07:47:20.132Z,99.83
2023-04-19T07:49:47.344Z,98.28
2023-04-19T07:52:14.059Z,97.70
2023-04-19T07:54:41.458Z,97.36
2023-04-19T07:57:08.166Z,96.34
2023-04-19T07:59:35.647Z,97.22
2023-04-19T08:02:05.687Z,95.67
2023-04-19T08:04:33.235Z,95.57
2023-04-19T08:07:00.064Z,96.21
2023-04-19T08:09:27.474Z,94.08
2023-04-19T08:11:54.166Z,93.70
2023-04-19T08:14:34.723Z,92.65
2023-04-19T08:17:25.713Z,91.50
2023-04-19T08:19:57.193Z,90.88
2023-04-19T08:22:23.846Z,91.95
2023-04-19T08:24:54.331Z,91.46
2023-04-19T08:27:22.071Z,92.69
2023-04-19T08:29:53.110Z,92.63
2023-04-19T08:32:20.251Z,91.93
2023-04-19T08:34:47.780Z,91.78
2023-04-19T08:37:38.990Z,94.55
2023-04-19T08:40:06.894Z,90.46
2023-04-19T08:42:36.707Z,88.91
2023-04-19T08:47:51.935Z,85.37
2023-04-19T08:50:33.284Z,86.49
2023-04-19T08:55:47.315Z,85.01
2023-04-19T08:58:32.804Z,81.91
2023-04-19T09:01:12.940Z,83.03
2023-04-19T09:04:00.191Z,80.19
2023-04-19T09:06:39.031Z,77.55
2023-04-19T09:12:00.553Z,74.88
2023-04-19T09:14:28.284Z,75.61
2023-04-19T09:17:12.775Z,73.36
2023-04-19T09:19:49.683Z,72.66
2023-04-19T09:22:18.125Z,72.99
2023-04-19T09:27:33.218Z,73.30
2023-04-19T09:30:01.368Z,73.05
2023-04-19T09:32:29.519Z,73.19
2023-04-19T09:34:58.282Z,73.37
2023-04-19T09:37:51.391Z,73.41
2023-04-19T09:40:24.348Z,72.13
2023-04-19T09:45:29.839Z,72.55
2023-04-19T09:48:02.845Z,71.39
2023-04-19T09:50:31.553Z,68.59
2023-04-19T09:52:59.691Z,70.25
2023-04-19T09:55:28.791Z,70.99
2023-04-19T09:57:56.996Z,68.45
2023-04-19T10:00:23.733Z,70.46
2023-04-19T10:02:58.733Z,68.47
2023-04-19T10:05:26.450Z,67.61
2023-04-19T10:07:59.526Z,66.26
2023-04-19T10:18:07.525Z,66.85
2023-04-19T10:21:02.140Z,63.64
2023-04-19T10:23:30.293Z,60.96
2023-04-19T10:25:57.980Z,60.08
2023-04-19T10:28:25.576Z,60.22
2023-04-19T10:31:01.564Z,60.16
2023-04-19T10:33:32.157Z,58.91
2023-04-19T10:35:59.716Z,58.87
2023-04-19T10:38:44.778Z,55.03
2023-04-19T10:41:14.581Z,56.15
2023-04-19T10:43:49.016Z,57.71
2023-04-19T10:46:21.350Z,55.47
2023-04-19T10:48:58.645Z,56.67
2023-04-19T10:51:38.818Z,55.32
2023-04-19T10:54:27.671Z,56.17
2023-04-19T10:57:06.162Z,54.02
2023-04-19T10:59:40.917Z,54.89
2023-04-19T11:02:22.905Z,55.96
2023-04-19T11:04:50.471Z,53.80
2023-04-19T11:07:21.392Z,54.30
2023-04-19T11:09:49.930Z,53.10
2023-04-19T11:12:18.589Z,53.92
2023-04-19T11:14:51.646Z,52.36
2023-04-19T11:17:27.465Z,53.46
2023-04-19T11:19:59.866Z,51.56
2023-04-19T11:22:33.702Z,51.57
2023-04-19T11:25:19.682Z,53.28
2023-04-19T11:27:52.191Z,51.60
2023-04-19T11:30:29.444Z,51.72
2023-04-19T11:32:57.483Z,52.40
2023-04-19T11:35:26.956Z,53.08
2023-04-19T11:37:55.086Z,53.87
2023-04-19T11:40:24.130Z,51.94
2023-04-19T11:43:02.408Z,52.80
2023-04-19T11:45:40.040Z,52.69
2023-04-19T11:48:16.932Z,52.07
2023-04-19T11:50:45.403Z,50.92
2023-04-19T11:53:17.372Z,52.71
2023-04-19T11:56:03.488Z,52.36
2023-04-19T11:58:44.522Z,52.97
2023-04-19T12:01:16.860Z,52.08
2023-04-19T12:03:52.437Z,53.50
2023-04-19T12:06:32.175Z,52.86
2023-04-19T12:08:59.071Z,52.70
2023-04-19T12:11:42.196Z,51.85
2023-04-19T12:14:14.268Z,54.01
2023-04-19T12:16:42.517Z,52.04
2023-04-19T12:19:20.458Z,54.16
2023-04-19T12:21:48.139Z,51.71
2023-04-19T12:24:16.474Z,51.29
2023-04-19T12:27:04.524Z,50.78
2023-04-19T12:29:31.997Z,49.47
2023-04-19T12:31:59.919Z,50.14
2023-04-19T12:34:26.929Z,49.93
2023-04-19T12:36:54.412Z,51.10
2023-04-19T12:39:21.099Z,50.36
2023-04-19T12:41:49.369Z,50.90
2023-04-19T12:44:16.301Z,48.64
2023-04-19T12:46:43.512Z,50.09
2023-04-19T12:49:10.094Z,49.50
2023-04-19T12:51:37.400Z,48.46
2023-04-19T12:54:04.190Z,49.74
2023-04-19T12:56:31.488Z,47.50
2023-04-19T12:58:58.083Z,48.12
2023-04-19T13:01:25.385Z,45.58
2023-04-19T13:03:52.165Z,48.01
2023-04-19T13:06:19.679Z,47.01
2023-04-19T13:08:47.930Z,47.53
2023-04-19T13:11:16.170Z,45.76
2023-04-19T13:13:42.861Z,48.14
2023-04-19T13:16:10.268Z,45.57
2023-04-19T13:18:36.933Z,46.10
2023-04-19T13:21:06.640Z,46.76
2023-04-19T13:23:34.648Z,45.88
2023-04-19T13:26:01.857Z,44.59
2023-04-19T13:28:28.540Z,46.40
2023-04-19T13:30:55.502Z,46.37
2023-04-19T13:33:22.143Z,46.51
2023-04-19T13:35:49.137Z,47.34
2023-04-19T13:38:15.941Z,46.35
2023-04-19T13:40:44.612Z,47.32
2023-04-19T13:43:11.199Z,46.98
2023-04-19T13:45:38.422Z,48.14
2023-04-19T13:48:05.526Z,49.76
2023-04-19T13:50:32.949Z,48.01
2023-04-19T13:52:59.659Z,47.92
2023-04-19T13:55:27.415Z,47.21
2023-04-19T13:57:54.015Z,48.31
2023-04-19T14:00:21.810Z,45.66
2023-04-19T14:02:50.169Z,46.83
2023-04-19T14:05:19.556Z,45.97
2023-04-19T14:07:46.426Z,46.89
2023-04-19T14:10:13.695Z,46.25
2023-04-19T14:12:40.832Z,47.32
2023-04-19T14:15:08.378Z,46.63
2023-04-19T14:17:35.984Z,46.81
2023-04-19T14:20:06.885Z,47.29
2023-04-19T14:22:35.085Z,47.20
2023-04-19T14:25:03.380Z,47.29
2023-04-19T14:27:30.314Z,46.32
2023-04-19T14:29:57.722Z,46.23
2023-04-19T14:32:26.455Z,47.45
2023-04-19T14:34:55.590Z,47.76
2023-04-19T14:37:23.777Z,47.43
2023-04-19T14:39:51.104Z,48.00
2023-04-19T14:42:20.025Z,48.13
2023-04-19T14:44:50.999Z,48.84
2023-04-19T14:47:17.692Z,49.66
2023-04-19T14:49:45.044Z,49.02
2023-04-19T14:52:11.842Z,49.66
2023-04-19T14:54:39.073Z,49.29
2023-04-19T14:57:05.703Z,49.10
2023-04-19T14:59:33.077Z,50.28
2023-04-19T15:01:59.710Z,50.60
2023-04-19T15:04:27.195Z,51.18
2023-04-19T15:06:53.915Z,50.13
2023-04-19T15:09:21.310Z,49.26
2023-04-19T15:11:47.931Z,51.58
2023-04-19T15:14:15.217Z,50.28
2023-04-19T15:16:42.386Z,50.17
2023-04-19T15:19:09.728Z,50.38
2023-04-19T15:21:36.294Z,50.84
2023-04-19T15:24:04.167Z,51.84
2023-04-19T15:26:30.769Z,52.45
2023-04-19T15:28:58.070Z,52.73
2023-04-19T15:31:25.355Z,52.15
2023-04-19T15:33:53.545Z,52.17
2023-04-19T15:36:20.198Z,51.36
2023-04-19T15:38:47.190Z,51.56
2023-04-19T15:41:13.845Z,51.78
2023-04-19T15:43:41.223Z,51.52
2023-04-19T15:46:14.856Z,51.96
2023-04-19T15:48:42.362Z,52.21
2023-04-19T15:51:10.497Z,51.82
2023-04-19T15:53:37.878Z,52.06
2023-04-19T15:56:05.366Z,53.00
2023-04-19T15:58:32.588Z,53.01
2023-04-19T16:00:59.184Z,53.97
2023-04-19T16:03:26.673Z,54.47
2023-04-19T16:05:53.335Z,53.97
2023-04-19T16:08:20.308Z,53.96
2023-04-19T16:10:47.996Z,53.84
2023-04-19T16:13:16.579Z,54.04
2023-04-19T16:15:45.352Z,53.73
2023-04-19T16:18:15.809Z,53.81
2023-04-19T16:20:42.449Z,54.23
2023-04-19T16:23:09.774Z,55.50
2023-04-19T16:25:36.457Z,54.83
2023-04-19T16:28:03.390Z,55.11
2023-04-19T16:30:29.993Z,55.73
2023-04-19T16:32:58.905Z,54.84
2023-04-19T16:35:26.708Z,55.27
2023-04-19T16:37:56.708Z,56.23
2023-04-19T16:40:24.162Z,55.04
2023-04-19T16:42:51.302Z,56.82
2023-04-19T16:45:19.308Z,56.37
2023-04-19T16:47:46.785Z,57.54
2023-04-19T16:50:14.114Z,57.07
2023-04-19T16:52:41.459Z,58.08
2023-04-19T16:55:09.340Z,57.55
2023-04-19T16:57:37.117Z,56.41
2023-04-19T17:00:05.929Z,57.43
2023-04-19T17:02:33.926Z,56.04
2023-04-19T17:05:01.119Z,56.73
2023-04-19T17:07:28.656Z,56.15
2023-04-19T17:09:55.852Z,56.56
2023-04-19T17:12:23.144Z,56.87
2023-04-19T17:14:49.874Z,57.22
2023-04-19T17:17:20.186Z,56.40
2023-04-19T17:19:47.232Z,57.13
2023-04-19T17:22:17.584Z,57.92
2023-04-19T17:24:44.148Z,56.83
2023-04-19T17:27:11.904Z,57.21
2023-04-19T17:29:38.578Z,58.72
2023-04-19T17:32:06.898Z,58.30
2023-04-19T17:34:36.561Z,59.73
2023-04-19T17:37:04.261Z,59.40
2023-04-19T17:39:30.947Z,59.46
2023-04-19T17:41:58.437Z,59.28
2023-04-19T17:44:25.152Z,60.21
2023-04-19T17:46:52.675Z,61.28
2023-04-19T17:49:21.171Z,61.39
2023-04-19T17:51:48.377Z,61.47
2023-04-19T17:54:16.621Z,61.26
2023-04-19T17:56:43.371Z,61.88
2023-04-19T17:59:10.664Z,62.50
2023-04-19T18:01:37.991Z,62.06
2023-04-19T18:04:05.878Z,62.36
2023-04-19T18:06:32.811Z,62.43
2023-04-19T18:09:00.825Z,63.32
2023-04-19T18:11:28.690Z,62.01
2023-04-19T18:13:57.270Z,62.57
2023-04-19T18:16:23.920Z,61.33
2023-04-19T18:18:51.765Z,61.43
2023-04-19T18:21:19.019Z,62.03
2023-04-19T18:23:46.475Z,62.83
2023-04-19T18:26:13.369Z,61.69
2023-04-19T18:28:40.850Z,62.69
2023-04-19T18:31:08.754Z,62.71
2023-04-19T18:33:36.850Z,62.92
2023-04-19T18:36:05.949Z,62.52
2023-04-19T18:38:33.991Z,62.57
2023-04-19T18:41:00.765Z,63.76
2023-04-19T18:43:30.911Z,63.55
2023-04-19T18:46:00.662Z,63.34
2023-04-19T18:48:29.736Z,63.60
2023-04-19T18:50:59.949Z,62.72
2023-04-19T18:53:30.408Z,63.40
2023-04-19T18:55:57.881Z,62.98
2023-04-19T18:58:27.225Z,63.54
2023-04-19T19:00:54.903Z,63.87
2023-04-19T19:05:57.965Z,62.47
2023-04-19T19:08:41.869Z,62.24
2023-04-19T19:11:33.155Z,61.96
2023-04-19T19:14:02.877Z,62.96
2023-04-19T19:16:31.093Z,62.92
2023-04-19T19:18:58.373Z,62.75
2023-04-19T19:21:25.151Z,63.33
2023-04-19T19:23:54.774Z,62.57
2023-04-19T19:26:22.370Z,63.67
2023-04-19T19:28:49.634Z,61.92
2023-04-19T19:31:16.177Z,62.37
2023-04-19T19:33:50.138Z,61.17
2023-04-19T19:36:21.527Z,61.27
2023-04-19T19:38:50.976Z,60.86
2023-04-19T19:43:48.383Z,60.72
2023-04-19T19:46:17.533Z,60.52
2023-04-19T19:48:45.040Z,60.74
2023-04-19T19:53:42.067Z,61.20
2023-04-19T19:56:18.401Z,60.52
2023-04-19T19:58:51.712Z,60.24
2023-04-19T20:01:22.448Z,60.61
2023-04-19T20:03:51.186Z,60.01
2023-04-19T20:07:03.350Z,60.77
2023-04-19T20:09:08.342Z,61.73
2023-04-19T20:11:35.216Z,62.49
2023-04-19T20:14:03.187Z,63.47
2023-04-19T20:16:30.021Z,64.23
2023-04-19T20:18:58.136Z,64.16
2023-04-19T20:21:24.710Z,64.55
2023-04-19T20:23:52.992Z,65.03
2023-04-19T20:26:19.531Z,65.22
2023-04-19T20:28:46.716Z,65.70
